Time;durP1;ratioP1;P1;durP2;ratioP2;P2;SDS_P1;SDS_P2;PMS_P1;PMS_P2;Temp;Humidity;BMP_temperature;BMP_pressure;BME280_temperature;BME280_humidity;BME280_pressure;Samples;Min_cycle;Max_cycle;Signal;HPM_P1;HPM_P2
2022/10/11 00:01:49;;;;;;;7.97;1.60;;;7.50;99.90;;;;;;4993818;28;20486;-59
2022/10/11 00:04:14;;;;;;;8.05;1.65;;;7.50;99.90;;;;;;4991988;28;20033;-58
2022/10/11 00:06:42;;;;;;;1.38;1.00;;;7.50;99.90;;;;;;4999024;28;20023;-59
2022/10/11 00:09:10;;;;;;;4.93;1.30;;;7.60;99.90;;;;;;4990447;28;20039;-58
2022/10/11 00:11:36;;;;;;;5.97;1.55;;;7.70;99.90;;;;;;4996391;28;20054;-58
2022/10/11 00:14:03;;;;;;;3.35;1.50;;;7.70;99.90;;;;;;5001264;28;20494;-59
2022/10/11 00:16:28;;;;;;;6.18;1.83;;;7.80;99.90;;;;;;4993625;28;20442;-59
2022/10/11 00:18:54;;;;;;;6.43;1.63;;;7.70;99.90;;;;;;4991676;28;20034;-58
2022/10/11 00:21:20;;;;;;;4.35;1.40;;;7.60;99.90;;;;;;4995683;28;20038;-58
2022/10/11 00:23:46;;;;;;;7.20;1.42;;;7.60;99.90;;;;;;4989182;28;20050;-59
2022/10/11 00:26:12;;;;;;;7.32;1.38;;;7.70;99.90;;;;;;4991098;28;20035;-59
2022/10/11 00:28:38;;;;;;;6.63;1.20;;;7.70;99.90;;;;;;5001342;28;20037;-58
2022/10/11 00:31:10;;;;;;;5.63;1.48;;;7.80;99.90;;;;;;4997832;28;20035;-58
2022/10/11 00:33:36;;;;;;;;;;;7.70;99.90;;;;;;4996237;28;20389;-59
2022/10/11 00:36:02;;;;;;;5.13;0.90;;;7.70;99.90;;;;;;4995547;28;19917;-59
2022/10/11 00:38:28;;;;;;;4.38;1.00;;;7.80;99.90;;;;;;4988823;28;20034;-58
2022/10/11 00:40:54;;;;;;;8.13;1.95;;;7.70;99.90;;;;;;4986061;28;20027;-58
2022/10/11 00:43:23;;;;;;;5.00;1.40;;;7.60;99.90;;;;;;4992565;28;20508;-58
2022/10/11 00:45:58;;;;;;;9.75;1.77;;;7.60;99.90;;;;;;4988982;28;20121;-58
2022/10/11 00:48:28;;;;;;;6.97;0.88;;;7.60;99.90;;;;;;4993838;28;20042;-58
2022/10/11 00:50:59;;;;;;;8.23;1.00;;;7.80;99.90;;;;;;4993488;28;20511;-58
2022/10/11 00:53:26;;;;;;;4.20;1.60;;;7.80;99.90;;;;;;4986799;28;20026;-58
2022/10/11 00:55:59;;;;;;;4.28;0.95;;;7.90;99.90;;;;;;4995906;28;20035;-58
2022/10/11 00:58:25;;;;;;;4.35;0.88;;;7.90;99.90;;;;;;4993425;28;20029;-59
2022/10/11 01:00:52;;;;;;;6.65;1.13;;;7.80;99.90;;;;;;4992012;28;20054;-57
2022/10/11 01:03:20;;;;;;;4.05;1.02;;;7.70;99.90;;;;;;4993972;28;20112;-58
2022/10/11 01:05:46;;;;;;;7.63;1.67;;;7.80;99.90;;;;;;4990224;28;20027;-58
2022/10/11 01:08:12;;;;;;;3.58;1.40;;;7.70;99.90;;;;;;4996218;28;20390;-58
2022/10/11 01:10:38;;;;;;;3.17;1.63;;;7.60;99.90;;;;;;4989698;28;20032;-59
2022/10/11 01:13:30;;;;;;;4.38;1.40;;;7.50;99.90;;;;;;4990988;28;20041;-59
2022/10/11 01:15:56;;;;;;;9.00;1.90;;;7.50;99.90;;;;;;4989896;28;20033;-58
2022/10/11 01:18:29;;;;;;;3.88;1.02;;;7.50;99.90;;;;;;4991348;28;20387;-58
2022/10/11 01:20:54;;;;;;;9.73;1.23;;;7.50;99.90;;;;;;4997435;28;20161;-59
2022/10/11 01:23:48;;;;;;;10.95;1.98;;;7.50;99.90;;;;;;4997260;28;20125;-60
2022/10/11 01:26:17;;;;;;;5.88;0.98;;;7.60;99.90;;;;;;4991073;28;20088;-58
2022/10/11 01:28:57;;;;;;;2.75;1.08;;;7.60;99.90;;;;;;4988359;28;20027;-59
2022/10/11 01:31:30;;;;;;;4.30;1.52;;;7.50;99.90;;;;;;4989997;28;20026;-58
2022/10/11 01:34:23;;;;;;;3.35;1.10;;;7.40;99.90;;;;;;4986454;28;20031;-58
2022/10/11 01:37:04;;;;;;;2.53;0.93;;;7.10;99.90;;;;;;4984118;28;20475;-58
2022/10/11 01:39:51;;;;;;;2.75;1.05;;;6.90;99.90;;;;;;4991603;28;20085;-58
2022/10/11 01:42:18;;;;;;;3.50;1.52;;;6.70;99.90;;;;;;4983561;28;20508;-58
2022/10/11 01:44:47;;;;;;;2.47;1.88;;;6.40;99.90;;;;;;4996233;28;20046;-59
2022/10/11 01:47:21;;;;;;;4.15;1.40;;;6.30;99.90;;;;;;4992324;28;20069;-59
2022/10/11 01:49:56;;;;;;;3.50;1.10;;;6.20;99.90;;;;;;4990109;28;20390;-58
2022/10/11 01:52:22;;;;;;;7.00;1.52;;;6.00;99.90;;;;;;4998071;28;20061;-58
2022/10/11 01:55:03;;;;;;;8.02;1.33;;;5.90;99.90;;;;;;4994047;28;20027;-58
2022/10/11 01:57:50;;;;;;;10.98;2.08;;;6.00;99.90;;;;;;4983756;28;20058;-58
2022/10/11 02:00:20;;;;;;;6.95;1.83;;;6.00;99.90;;;;;;4992184;28;20437;-58
2022/10/11 02:03:23;;;;;;;4.15;1.20;;;5.90;99.90;;;;;;4990350;28;20138;-58
2022/10/11 02:06:09;;;;;;;4.38;1.20;;;5.90;99.90;;;;;;4988467;28;20022;-59
2022/10/11 02:08:54;;;;;;;6.07;1.27;;;5.80;99.90;;;;;;4990029;28;20022;-58
2022/10/11 02:11:30;;;;;;;3.72;1.13;;;5.70;99.90;;;;;;4999665;28;20054;-57
2022/10/11 02:13:59;;;;;;;3.58;1.98;;;5.80;99.90;;;;;;4991159;28;20022;-59
2022/10/11 02:16:35;;;;;;;5.25;1.23;;;5.80;99.90;;;;;;4986351;28;20104;-59
2022/10/11 02:19:03;;;;;;;7.18;1.35;;;6.00;99.90;;;;;;4998793;28;20080;-58
2022/10/11 02:21:34;;;;;;;5.82;1.85;;;6.00;99.90;;;;;;4997343;28;20030;-59
2022/10/11 02:24:05;;;;;;;3.90;0.85;;;6.10;99.90;;;;;;5003920;28;20593;-59
2022/10/11 02:26:32;;;;;;;6.70;1.60;;;6.30;99.90;;;;;;4994793;28;20505;-57
2022/10/11 02:29:01;;;;;;;5.85;1.05;;;6.60;99.90;;;;;;4997539;28;20034;-57
2022/10/11 02:31:29;;;;;;;7.43;1.50;;;6.50;99.90;;;;;;4995170;28;20536;-58
2022/10/11 02:34:01;;;;;;;2.88;1.35;;;6.40;99.90;;;;;;5007053;28;20022;-58
2022/10/11 02:36:36;;;;;;;;;;;6.30;99.90;;;;;;4993131;28;20452;-62
2022/10/11 02:39:11;;;;;;;1.08;0.95;;;6.20;99.90;;;;;;5002231;28;20288;-58
2022/10/11 02:41:41;;;;;;;6.72;1.88;;;6.00;99.90;;;;;;4997097;28;20123;-58
2022/10/11 02:44:12;;;;;;;6.55;2.47;;;5.80;99.90;;;;;;4999185;28;20529;-58
2022/10/11 02:46:40;;;;;;;2.90;1.27;;;5.60;99.90;;;;;;5000002;28;20469;-59
2022/10/11 02:49:07;;;;;;;2.80;1.20;;;5.60;99.90;;;;;;4997317;28;20026;-59
2022/10/11 02:51:33;;;;;;;6.70;1.65;;;5.40;99.90;;;;;;4999533;28;20336;-59
2022/10/11 02:53:59;;;;;;;3.92;1.50;;;5.40;99.90;;;;;;4996039;28;20036;-58
2022/10/11 02:56:24;;;;;;;2.75;1.70;;;5.30;99.90;;;;;;4994131;28;20022;-60
2022/10/11 02:58:50;;;;;;;8.95;1.40;;;5.30;99.90;;;;;;4997341;28;20045;-58
2022/10/11 03:01:16;;;;;;;5.50;1.23;;;5.40;99.90;;;;;;4993571;28;20140;-58
2022/10/11 03:03:41;;;;;;;2.38;0.95;;;5.60;99.90;;;;;;4996303;28;20046;-59
2022/10/11 03:06:07;;;;;;;4.28;1.35;;;5.80;99.90;;;;;;4994947;28;20122;-58
2022/10/11 03:08:33;;;;;;;12.15;2.00;;;6.10;99.90;;;;;;4992918;28;20033;-59
2022/10/11 03:10:59;;;;;;;6.25;1.27;;;6.40;99.90;;;;;;4994059;28;20065;-59
2022/10/11 03:13:25;;;;;;;13.48;1.38;;;6.60;99.90;;;;;;4996901;28;20026;-58
2022/10/11 03:15:53;;;;;;;4.10;1.30;;;6.80;99.90;;;;;;4995101;28;20037;-58
2022/10/11 03:18:19;;;;;;;4.03;1.77;;;6.70;99.90;;;;;;4990273;28;20034;-57
2022/10/11 03:20:45;;;;;;;7.05;1.70;;;6.40;99.90;;;;;;4992815;28;20527;-58
2022/10/11 03:23:11;;;;;;;4.50;1.50;;;6.10;99.90;;;;;;4995858;28;20054;-59
2022/10/11 03:25:37;;;;;;;6.35;1.92;;;5.90;99.90;;;;;;4992863;28;20022;-59
2022/10/11 03:28:03;;;;;;;4.20;1.70;;;5.70;99.90;;;;;;4996508;28;20068;-58
2022/10/11 03:30:29;;;;;;;3.53;1.08;;;5.60;99.90;;;;;;4988307;28;20101;-58
2022/10/11 03:32:55;;;;;;;4.15;1.20;;;5.50;99.90;;;;;;4989977;28;20030;-58
2022/10/11 03:35:20;;;;;;;4.63;1.15;;;5.20;99.90;;;;;;4989845;28;20493;-58
2022/10/11 03:37:46;;;;;;;3.55;1.40;;;5.20;99.90;;;;;;4991352;28;20478;-58
2022/10/11 03:40:12;;;;;;;6.32;1.95;;;5.20;99.90;;;;;;4990568;28;20066;-58
2022/10/11 03:42:38;;;;;;;2.70;1.33;;;5.30;99.90;;;;;;4991904;28;20070;-58
2022/10/11 03:45:07;;;;;;;3.92;1.20;;;5.20;99.90;;;;;;4989101;28;20050;-58
2022/10/11 03:47:36;;;;;;;9.60;1.92;;;5.20;99.90;;;;;;4990786;28;20457;-60
2022/10/11 03:50:04;;;;;;;5.78;1.50;;;5.10;99.90;;;;;;4991934;28;20044;-58
2022/10/11 03:52:30;;;;;;;6.20;1.67;;;5.10;99.90;;;;;;4992057;28;20385;-58
2022/10/11 03:54:56;;;;;;;6.75;1.90;;;5.20;99.90;;;;;;4989192;28;20438;-58
2022/10/11 03:57:22;;;;;;;3.67;1.60;;;5.20;99.90;;;;;;4988166;28;20538;-59
2022/10/11 03:59:47;;;;;;;6.38;1.77;;;5.10;99.90;;;;;;4983569;28;20035;-59
2022/10/11 04:02:13;;;;;;;8.50;2.17;;;5.10;99.90;;;;;;4992815;28;21973;-58
2022/10/11 04:04:39;;;;;;;7.75;2.00;;;5.10;99.90;;;;;;4991005;28;20134;-58
2022/10/11 04:07:05;;;;;;;7.95;2.00;;;5.00;99.90;;;;;;4991431;28;20036;-57
2022/10/11 04:09:30;;;;;;;9.73;2.22;;;4.90;99.90;;;;;;4990618;28;20112;-58
2022/10/11 04:11:56;;;;;;;12.82;2.58;;;4.80;99.90;;;;;;4992506;28;20034;-58
2022/10/11 04:14:21;;;;;;;6.15;1.75;;;4.90;99.90;;;;;;4984840;28;21662;-58
2022/10/11 04:16:47;;;;;;;7.30;1.95;;;5.00;99.90;;;;;;4992055;28;20022;-57
2022/10/11 04:19:13;;;;;;;3.92;1.35;;;4.80;99.90;;;;;;4989006;28;20438;-58
2022/10/11 04:21:38;;;;;;;11.40;1.98;;;4.70;99.90;;;;;;4990379;28;20053;-57
2022/10/11 04:24:04;;;;;;;4.85;1.98;;;4.70;99.90;;;;;;4990126;28;20502;-58
2022/10/11 04:26:30;;;;;;;3.90;1.75;;;4.60;99.90;;;;;;4988066;28;20493;-55
2022/10/11 04:28:56;;;;;;;6.28;1.92;;;4.60;99.90;;;;;;4992422;28;20038;-58
2022/10/11 04:31:22;;;;;;;4.63;1.30;;;4.50;99.90;;;;;;4987663;28;20053;-58
2022/10/11 04:33:48;;;;;;;1.52;1.08;;;4.40;99.90;;;;;;4991119;28;20109;-58
2022/10/11 04:36:13;;;;;;;6.32;1.40;;;4.40;99.90;;;;;;4987659;28;20122;-59
2022/10/11 04:38:39;;;;;;;5.30;1.92;;;4.40;99.90;;;;;;4991148;28;20085;-58
2022/10/11 04:41:09;;;;;;;7.50;1.65;;;4.40;99.90;;;;;;4992203;28;20478;-58
2022/10/11 04:43:35;;;;;;;3.67;1.20;;;4.40;99.90;;;;;;4986085;28;20050;-58
2022/10/11 04:46:01;;;;;;;5.40;1.65;;;4.50;99.90;;;;;;4987695;28;20113;-57
2022/10/11 04:48:27;;;;;;;4.53;1.40;;;4.50;99.90;;;;;;4986019;28;20438;-59
2022/10/11 04:50:52;;;;;;;10.80;1.42;;;4.50;99.90;;;;;;4988988;28;20033;-59
2022/10/11 04:53:18;;;;;;;2.38;1.40;;;4.40;99.90;;;;;;4991475;28;20035;-59
2022/10/11 04:55:55;;;;;;;4.18;1.45;;;4.30;99.90;;;;;;4989522;28;20030;-59
2022/10/11 04:58:20;;;;;;;1.98;1.80;;;4.30;99.90;;;;;;4993001;28;20046;-58
2022/10/11 05:00:46;;;;;;;5.88;2.10;;;4.20;99.90;;;;;;4986929;28;20089;-57
2022/10/11 05:03:12;;;;;;;6.93;1.63;;;4.20;99.90;;;;;;4985454;28;20053;-59
2022/10/11 05:05:37;;;;;;;3.20;1.50;;;4.30;99.90;;;;;;4988541;28;20109;-58
2022/10/11 05:08:03;;;;;;;3.17;1.83;;;4.30;99.90;;;;;;4989344;28;20031;-59
2022/10/11 05:10:29;;;;;;;3.75;1.60;;;4.30;99.90;;;;;;4988301;28;20054;-58
2022/10/11 05:12:55;;;;;;;7.63;1.60;;;4.30;99.90;;;;;;4979913;28;20084;-58
2022/10/11 05:15:20;;;;;;;3.75;1.35;;;4.30;99.90;;;;;;4989043;28;20462;-58
2022/10/11 05:17:46;;;;;;;2.55;1.65;;;4.20;99.90;;;;;;4990141;28;20121;-58
2022/10/11 05:20:11;;;;;;;6.93;1.70;;;4.20;99.90;;;;;;4985333;28;20086;-58
2022/10/11 05:22:37;;;;;;;5.40;1.70;;;4.30;99.90;;;;;;4991735;28;20034;-58
2022/10/11 05:25:03;;;;;;;6.63;1.75;;;4.20;99.90;;;;;;4995744;28;20058;-59
2022/10/11 05:27:29;;;;;;;5.30;1.60;;;4.10;99.90;;;;;;4989410;28;20076;-59
2022/10/11 05:29:54;;;;;;;4.80;1.70;;;4.10;99.90;;;;;;4989254;28;20062;-58
2022/10/11 05:32:20;;;;;;;3.58;1.63;;;4.10;99.90;;;;;;4987031;28;20030;-58
2022/10/11 05:34:45;;;;;;;3.20;1.50;;;4.10;99.90;;;;;;4990108;28;20034;-58
2022/10/11 05:37:11;;;;;;;4.22;1.92;;;4.10;99.90;;;;;;4991924;28;20474;-59
2022/10/11 05:39:37;;;;;;;9.02;2.25;;;4.00;99.90;;;;;;4989699;28;20398;-59
2022/10/11 05:42:02;;;;;;;3.38;1.10;;;4.10;99.90;;;;;;4991881;28;20116;-59
2022/10/11 05:44:28;;;;;;;7.60;2.63;;;4.20;99.90;;;;;;4990049;28;20054;-58
2022/10/11 05:46:54;;;;;;;5.65;1.33;;;4.10;99.90;;;;;;4990086;28;20124;-59
2022/10/11 05:49:19;;;;;;;2.05;1.42;;;4.10;99.90;;;;;;4989043;28;20484;-60
2022/10/11 05:51:45;;;;;;;2.70;1.60;;;4.10;99.90;;;;;;4990756;28;20045;-58
2022/10/11 05:54:10;;;;;;;5.35;2.08;;;4.20;99.90;;;;;;4993105;28;20034;-58
2022/10/11 05:56:36;;;;;;;4.97;1.65;;;4.10;99.90;;;;;;4990997;28;20026;-58
2022/10/11 05:59:03;;;;;;;11.45;2.00;;;4.20;99.90;;;;;;4995005;28;20390;-58
2022/10/11 06:01:28;;;;;;;2.63;1.92;;;4.20;99.90;;;;;;4989484;28;20383;-59
2022/10/11 06:03:54;;;;;;;4.78;1.65;;;4.20;99.90;;;;;;4989030;28;20049;-58
2022/10/11 06:06:20;;;;;;;10.25;1.83;;;4.20;99.90;;;;;;4991073;28;20034;-58
2022/10/11 06:08:47;;;;;;;5.05;1.27;;;4.20;99.90;;;;;;4989792;28;20037;-58
2022/10/11 06:11:15;;;;;;;3.03;1.52;;;4.30;99.90;;;;;;4991640;28;20105;-58
2022/10/11 06:13:41;;;;;;;2.95;1.33;;;4.40;99.90;;;;;;4989495;28;20034;-58
2022/10/11 06:16:08;;;;;;;10.80;1.50;;;4.40;99.90;;;;;;4992181;28;20108;-58
2022/10/11 06:18:34;;;;;;;6.03;2.60;;;4.50;99.90;;;;;;4988122;28;20026;-59
2022/10/11 06:20:59;;;;;;;11.70;6.25;;;4.50;99.90;;;;;;4978664;28;20097;-58
2022/10/11 06:23:25;;;;;;;2.92;1.83;;;4.60;99.90;;;;;;4999207;28;20046;-58
2022/10/11 06:25:59;;;;;;;5.18;2.58;;;4.60;99.90;;;;;;4992764;28;20533;-58
2022/10/11 06:28:27;;;;;;;8.02;1.85;;;4.60;99.90;;;;;;4983659;28;20074;-57
2022/10/11 06:30:53;;;;;;;8.43;1.58;;;4.70;99.90;;;;;;4995501;28;20542;-58
2022/10/11 06:33:19;;;;;;;3.72;1.88;;;4.70;99.90;;;;;;4988855;28;20077;-60
2022/10/11 06:35:44;;;;;;;4.25;2.67;;;4.80;99.90;;;;;;4980288;28;20062;-60
2022/10/11 06:38:10;;;;;;;8.45;2.03;;;4.80;99.90;;;;;;4993314;28;20548;-57
2022/10/11 06:40:36;;;;;;;5.22;1.88;;;4.80;99.90;;;;;;4989330;28;20029;-59
2022/10/11 06:43:01;;;;;;;4.00;3.00;;;4.90;99.90;;;;;;4982311;28;20035;-60
2022/10/11 06:45:27;;;;;;;4.20;1.40;;;4.90;99.90;;;;;;4986392;28;21088;-59
2022/10/11 06:47:53;;;;;;;13.05;2.60;;;5.00;99.90;;;;;;4988838;28;20383;-59
2022/10/11 06:50:40;;;;;;;5.90;2.08;;;5.20;99.90;;;;;;4988040;28;20446;-58
2022/10/11 06:53:06;;;;;;;10.18;2.60;;;5.40;99.90;;;;;;4987138;28;20053;-58
2022/10/11 06:55:33;;;;;;;3.97;1.98;;;5.30;99.90;;;;;;4988548;28;20034;-60
2022/10/11 06:57:58;;;;;;;6.40;2.35;;;5.40;99.90;;;;;;4989035;28;20627;-59
2022/10/11 07:00:24;;;;;;;2.63;1.42;;;5.40;99.90;;;;;;4985119;28;20030;-59
2022/10/11 07:02:50;;;;;;;3.92;2.20;;;5.40;99.90;;;;;;4988189;28;20030;-59
2022/10/11 07:05:16;;;;;;;6.15;2.00;;;5.50;99.90;;;;;;4997808;28;20038;-58
2022/10/11 07:07:42;;;;;;;3.60;2.08;;;5.50;99.90;;;;;;4991526;28;20026;-58
2022/10/11 07:10:08;;;;;;;4.75;1.17;;;5.60;99.90;;;;;;4994889;28;20468;-59
2022/10/11 07:12:34;;;;;;;3.65;1.98;;;5.70;99.90;;;;;;4992461;28;20030;-58
2022/10/11 07:15:00;;;;;;;7.35;2.25;;;5.80;99.90;;;;;;4994214;28;20038;-59
2022/10/11 07:17:25;;;;;;;6.28;1.92;;;5.80;99.90;;;;;;5002841;28;20030;-58
2022/10/11 07:19:51;;;;;;;15.25;3.10;;;5.80;99.90;;;;;;4986241;28;20033;-57
2022/10/11 07:22:17;;;;;;;6.47;1.63;;;5.70;99.90;;;;;;4989248;28;20396;-59
2022/10/11 07:24:42;;;;;;;10.27;2.00;;;5.80;99.90;;;;;;4999615;28;20562;-58
2022/10/11 07:27:08;;;;;;;5.93;1.80;;;5.90;99.90;;;;;;4996836;28;20037;-59
2022/10/11 07:29:34;;;;;;;5.47;2.08;;;6.00;99.90;;;;;;4981655;28;20064;-59
2022/10/11 07:32:00;;;;;;;5.20;2.28;;;6.20;99.90;;;;;;4984562;28;20042;-58
2022/10/11 07:34:26;;;;;;;3.95;1.77;;;6.20;99.90;;;;;;4988445;28;20092;-59
2022/10/11 07:36:52;;;;;;;5.72;2.08;;;6.20;99.90;;;;;;4988700;28;20034;-58
2022/10/11 07:39:17;;;;;;;9.43;2.25;;;6.20;99.90;;;;;;4989778;28;20104;-58
2022/10/11 07:41:43;;;;;;;6.88;2.17;;;6.40;99.90;;;;;;4987862;28;20027;-58
2022/10/11 07:44:08;;;;;;;2.83;1.65;;;6.50;99.90;;;;;;4984293;28;20053;-60
2022/10/11 07:46:34;;;;;;;8.52;1.88;;;6.40;99.90;;;;;;4992342;28;20058;-59
2022/10/11 07:49:00;;;;;;;7.93;2.17;;;6.50;99.90;;;;;;4990397;28;20046;-59
2022/10/11 07:51:25;;;;;;;4.93;2.13;;;6.50;99.90;;;;;;4989124;28;20036;-59
2022/10/11 07:53:54;;;;;;;8.82;5.13;;;6.50;99.90;;;;;;4988371;28;20056;-59
2022/10/11 07:56:26;;;;;;;6.22;1.52;;;6.70;99.90;;;;;;4999908;28;20109;-60
2022/10/11 07:58:57;;;;;;;6.60;1.50;;;6.80;99.90;;;;;;4989426;28;20045;-59
2022/10/11 08:01:24;;;;;;;10.73;2.23;;;6.90;99.90;;;;;;4991190;28;20176;-59
2022/10/11 08:03:50;;;;;;;4.60;1.40;;;7.20;99.90;;;;;;4989873;28;20296;-59
2022/10/11 08:06:19;;;;;;;3.22;1.27;;;7.40;99.90;;;;;;4982165;28;20444;-60
2022/10/11 08:08:44;;;;;;;10.13;2.58;;;7.60;99.90;;;;;;4984288;28;20030;-58
2022/10/11 08:11:18;;;;;;;6.97;1.38;;;7.70;99.90;;;;;;4986128;28;20045;-58
2022/10/11 08:13:43;;;;;;;5.75;1.95;;;7.70;99.90;;;;;;4986726;28;20038;-59
2022/10/11 08:16:12;;;;;;;6.32;1.05;;;7.80;99.90;;;;;;4986012;28;20026;-59
2022/10/11 08:18:38;;;;;;;7.85;1.98;;;7.80;99.90;;;;;;4988453;28;20033;-58
2022/10/11 08:21:08;;;;;;;13.35;1.95;;;7.80;99.90;;;;;;4987595;28;20039;-59
2022/10/11 08:23:34;;;;;;;6.82;2.08;;;7.90;99.90;;;;;;4986645;28;20463;-59
2022/10/11 08:25:59;;;;;;;8.95;1.50;;;8.00;99.90;;;;;;4994590;28;20623;-60
2022/10/11 08:28:25;;;;;;;11.52;1.90;;;8.00;99.90;;;;;;4991771;28;20030;-59
2022/10/11 08:30:53;;;;;;;8.02;1.15;;;8.00;99.90;;;;;;4999144;28;20167;-59
2022/10/11 08:33:20;;;;;;;5.70;1.90;;;8.00;99.90;;;;;;4988777;28;20446;-60
2022/10/11 08:35:47;;;;;;;14.65;2.72;;;8.10;99.90;;;;;;4989139;28;20085;-59
2022/10/11 08:38:13;;;;;;;5.38;1.50;;;8.10;99.90;;;;;;4993276;28;20057;-58
2022/10/11 08:40:45;;;;;;;7.85;1.63;;;8.10;99.90;;;;;;4996295;28;20393;-59
2022/10/11 08:43:20;;;;;;;8.50;2.08;;;8.20;99.90;;;;;;4977149;28;20042;-59
2022/10/11 08:45:50;;;;;;;7.28;2.00;;;8.20;99.90;;;;;;4997928;28;20136;-58
2022/10/11 08:48:28;;;;;;;9.13;1.50;;;8.20;99.90;;;;;;4998406;28;20461;-59
2022/10/11 08:50:55;;;;;;;5.88;1.88;;;8.40;99.90;;;;;;4998957;28;20486;-60
2022/10/11 08:53:25;;;;;;;9.13;2.30;;;8.40;99.90;;;;;;4990814;28;20104;-60
2022/10/11 08:55:53;;;;;;;7.35;1.70;;;8.50;99.90;;;;;;4991389;28;20030;-58
2022/10/11 08:58:37;;;;;;;5.72;1.52;;;8.50;99.90;;;;;;4994811;28;20030;-59
2022/10/11 09:01:09;;;;;;;7.07;1.40;;;8.60;99.90;;;;;;4993556;28;20541;-59
2022/10/11 09:03:40;;;;;;;7.57;2.22;;;8.70;99.90;;;;;;4990773;28;20461;-60
2022/10/11 09:06:36;;;;;;;4.40;1.40;;;8.80;99.90;;;;;;4989967;28;20022;-60
2022/10/11 09:09:27;;;;;;;15.40;2.92;;;8.80;99.90;;;;;;4990685;28;20117;-59
2022/10/11 09:12:12;;;;;;;9.73;2.33;;;9.00;99.90;;;;;;4990090;28;20026;-60
2022/10/11 09:14:56;;;;;;;7.85;1.33;;;9.10;99.90;;;;;;4995585;28;20142;-60
2022/10/11 09:18:01;;;;;;;6.85;1.90;;;9.20;99.90;;;;;;4987711;28;20026;-60
2022/10/11 09:20:29;;;;;;;12.48;1.48;;;9.30;99.90;;;;;;4978203;28;20478;-59
2022/10/11 09:23:32;;;;;;;4.70;1.40;;;9.50;99.90;;;;;;4991504;28;20023;-59
2022/10/11 09:26:05;;;;;;;11.98;2.17;;;9.60;99.90;;;;;;4985393;28;20099;-59
2022/10/11 09:28:52;;;;;;;9.45;1.75;;;9.70;99.90;;;;;;4985607;28;20026;-58
2022/10/11 09:31:17;;;;;;;5.10;1.30;;;9.90;99.90;;;;;;4981668;28;20268;-58
2022/10/11 09:33:46;;;;;;;10.23;2.53;;;10.00;99.90;;;;;;4980737;28;20105;-59
2022/10/11 09:36:40;;;;;;;8.73;1.88;;;10.10;99.90;;;;;;4989590;28;20320;-59
2022/10/11 09:39:15;;;;;;;6.85;1.67;;;10.20;99.90;;;;;;4990808;28;20394;-59
2022/10/11 09:42:01;;;;;;;5.13;2.03;;;10.30;99.90;;;;;;4987579;28;20116;-59
2022/10/11 09:44:40;;;;;;;6.43;2.10;;;10.40;99.90;;;;;;4987797;28;20042;-59
2022/10/11 09:47:10;;;;;;;9.10;2.30;;;10.60;99.90;;;;;;4987145;28;20081;-59
2022/10/11 09:50:05;;;;;;;4.13;1.67;;;10.80;99.90;;;;;;4991839;28;20026;-59
2022/10/11 09:52:32;;;;;;;7.40;1.35;;;10.90;99.90;;;;;;4988354;28;20065;-58
2022/10/11 09:55:01;;;;;;;9.68;2.80;;;11.00;99.90;;;;;;4998125;28;20358;-58
2022/10/11 09:57:32;;;;;;;6.50;1.00;;;11.20;99.90;;;;;;4986761;28;20033;-59
2022/10/11 10:00:04;;;;;;;12.35;2.10;;;11.30;99.90;;;;;;4989773;28;20026;-59
2022/10/11 10:02:41;;;;;;;7.70;1.38;;;11.40;99.90;;;;;;4989076;28;20133;-59
2022/10/11 10:05:07;;;;;;;11.30;1.60;;;11.40;99.90;;;;;;4985231;28;20030;-59
2022/10/11 10:07:35;;;;;;;8.27;2.40;;;11.50;99.90;;;;;;4986370;28;20033;-59
2022/10/11 10:10:29;;;;;;;5.60;1.35;;;11.60;99.90;;;;;;4991281;28;20034;-59
2022/10/11 10:12:58;;;;;;;8.40;1.38;;;11.60;99.90;;;;;;4987351;28;20034;-59
2022/10/11 10:15:33;;;;;;;3.13;0.70;;;11.70;99.90;;;;;;4993818;28;20034;-58
2022/10/11 10:17:59;;;;;;;7.63;1.55;;;11.90;99.90;;;;;;4989964;28;20037;-60
2022/10/11 10:20:31;;;;;;;12.70;1.52;;;12.00;99.90;;;;;;4997025;28;20433;-58
2022/10/11 10:23:05;;;;;;;6.40;1.80;;;12.20;99.90;;;;;;4990732;28;20034;-58
2022/10/11 10:25:35;;;;;;;6.45;1.48;;;12.30;99.90;;;;;;4984544;28;20589;-59
2022/10/11 10:28:03;;;;;;;9.10;2.13;;;12.40;99.90;;;;;;4990584;28;20039;-58
2022/10/11 10:30:29;;;;;;;6.18;1.25;;;12.50;99.90;;;;;;4993763;28;20045;-58
2022/10/11 10:33:15;;;;;;;9.30;2.20;;;12.70;99.90;;;;;;4996678;28;20475;-59
2022/10/11 10:35:45;;;;;;;6.47;1.38;;;12.80;99.90;;;;;;4984180;28;20030;-59
2022/10/11 10:38:23;;;;;;;11.35;2.00;;;12.90;99.90;;;;;;4987807;28;20041;-58
2022/10/11 10:40:52;;;;;;;6.28;1.58;;;13.10;99.90;;;;;;4989245;28;20478;-59
2022/10/11 10:43:38;;;;;;;7.40;1.27;;;13.20;99.90;;;;;;4991137;28;20462;-64
2022/10/11 10:46:39;;;;;;;4.32;1.27;;;13.30;99.90;;;;;;4989369;28;20037;-59
2022/10/11 10:49:23;;;;;;;7.65;1.70;;;13.50;99.90;;;;;;4989150;28;20034;-59
2022/10/11 10:52:04;;;;;;;4.30;1.10;;;13.60;99.90;;;;;;4986873;28;20510;-59
2022/10/11 10:55:14;;;;;;;6.95;1.20;;;13.80;99.90;;;;;;4989926;28;20490;-60
2022/10/11 10:58:23;;;;;;;5.78;1.85;;;13.90;99.90;;;;;;4987146;28;20034;-59
2022/10/11 11:01:16;;;;;;;6.63;1.48;;;14.10;99.90;;;;;;4996139;28;20066;-61
2022/10/11 11:03:52;;;;;;;4.65;1.52;;;14.50;99.90;;;;;;4959137;28;20421;-59
2022/10/11 11:06:25;;;;;;;3.55;0.93;;;15.40;99.90;;;;;;4991359;28;20038;-59
2022/10/11 11:09:20;;;;;;;3.50;1.40;;;16.20;99.90;;;;;;4989977;28;20065;-59
2022/10/11 11:12:06;;;;;;;5.57;1.10;;;16.80;99.90;;;;;;4993861;28;20038;-59
2022/10/11 11:14:46;;;;;;;4.22;1.15;;;17.60;99.90;;;;;;4980091;28;20038;-60
2022/10/11 11:17:18;;;;;;;6.95;1.40;;;17.40;99.90;;;;;;4985643;28;20038;-59
2022/10/11 11:20:13;;;;;;;6.70;0.73;;;16.90;99.90;;;;;;4988937;28;20027;-61
2022/10/11 11:23:02;;;;;;;5.93;1.13;;;15.90;99.90;;;;;;4993148;28;20045;-60
2022/10/11 11:25:33;;;;;;;3.88;0.80;;;16.00;99.90;;;;;;4986461;28;20054;-59
2022/10/11 11:28:22;;;;;;;1.85;0.88;;;16.70;99.90;;;;;;4983892;28;20064;-58
2022/10/11 11:30:48;;;;;;;5.45;1.00;;;17.40;99.90;;;;;;4989998;28;20125;-59
2022/10/11 11:33:24;;;;;;;8.52;1.25;;;17.70;99.90;;;;;;4987138;28;20122;-58
2022/10/11 11:35:54;;;;;;;3.58;1.00;;;18.10;99.90;;;;;;4983359;28;20069;-58
2022/10/11 11:38:39;;;;;;;6.00;0.90;;;18.30;99.90;;;;;;4992415;28;20129;-59
2022/10/11 11:41:15;;;;;;;3.40;0.90;;;18.50;99.70;;;;;;4988274;28;20030;-59
2022/10/11 11:43:50;;;;;;;3.60;0.90;;;18.60;99.50;;;;;;4990636;28;20080;-59
2022/10/11 11:46:28;;;;;;;4.05;0.70;;;19.00;99.10;;;;;;4988018;28;20558;-60
2022/10/11 11:48:57;;;;;;;3.58;1.67;;;18.90;98.40;;;;;;4995009;28;20022;-59
2022/10/11 11:51:30;;;;;;;2.45;0.65;;;18.90;98.10;;;;;;4991225;28;20386;-60
2022/10/11 11:54:05;;;;;;;5.50;0.98;;;19.20;96.50;;;;;;4997362;28;20097;-59
2022/10/11 11:56:53;;;;;;;2.03;0.70;;;19.80;96.70;;;;;;4989449;28;20065;-57
2022/10/11 11:59:51;;;;;;;4.03;0.98;;;19.70;95.60;;;;;;4987271;28;20027;-59
2022/10/11 12:02:46;;;;;;;6.20;2.03;;;19.90;93.80;;;;;;4986533;28;20037;-59
2022/10/11 12:05:15;;;;;;;4.45;0.75;;;20.00;93.80;;;;;;4994214;28;20123;-59
2022/10/11 12:07:56;;;;;;;2.10;0.65;;;20.20;92.40;;;;;;4990851;28;20041;-60
2022/10/11 12:10:36;;;;;;;7.80;1.15;;;20.00;93.90;;;;;;4989075;28;20035;-59
2022/10/11 12:13:19;;;;;;;4.47;1.17;;;20.30;90.60;;;;;;4993997;28;20031;-60
2022/10/11 12:16:03;;;;;;;5.70;0.77;;;20.40;90.60;;;;;;4985131;28;20359;-60
2022/10/11 12:18:30;;;;;;;6.25;1.27;;;20.20;88.80;;;;;;4990254;28;20038;-59
2022/10/11 12:21:19;;;;;;;2.85;1.23;;;20.00;90.60;;;;;;4991601;28;20482;-60
2022/10/11 12:23:48;;;;;;;3.83;0.90;;;20.00;90.00;;;;;;4989036;28;20545;-59
2022/10/11 12:26:36;;;;;;;3.72;0.95;;;20.30;89.50;;;;;;4991073;28;20117;-59
2022/10/11 12:29:03;;;;;;;3.00;0.68;;;20.50;89.90;;;;;;4984044;28;20121;-59
2022/10/11 12:31:34;;;;;;;3.88;1.15;;;20.70;82.90;;;;;;4992474;28;20655;-59
2022/10/11 12:34:00;;;;;;;5.35;1.27;;;20.70;82.20;;;;;;4985791;28;21619;-59
2022/10/11 12:36:40;;;;;;;5.38;1.00;;;21.30;78.40;;;;;;4991393;28;20081;-60
2022/10/11 12:39:18;;;;;;;3.47;1.05;;;21.40;76.30;;;;;;4987345;28;20027;-60
2022/10/11 12:41:49;;;;;;;3.30;0.50;;;21.10;74.20;;;;;;4983295;28;20382;-59
2022/10/11 12:44:18;;;;;;;2.67;0.98;;;21.10;74.10;;;;;;4982503;28;20054;-59
2022/10/11 12:46:49;;;;;;;6.18;1.88;;;20.70;75.50;;;;;;4981122;28;20027;-59
2022/10/11 12:49:31;;;;;;;3.78;0.82;;;20.90;74.90;;;;;;4984442;28;20049;-59
2022/10/11 12:52:00;;;;;;;2.60;0.55;;;21.30;75.20;;;;;;4994059;28;20034;-59
2022/10/11 12:54:47;;;;;;;2.50;0.73;;;21.40;71.80;;;;;;5002841;28;20031;-60
2022/10/11 12:57:54;;;;;;;5.97;1.65;;;21.80;69.90;;;;;;4991536;28;20026;-59
2022/10/11 13:00:29;;;;;;;5.75;1.65;;;21.90;69.70;;;;;;4944025;28;20027;-60
2022/10/11 13:02:57;;;;;;;3.58;1.05;;;21.80;68.70;;;;;;4941756;28;20043;-59
2022/10/11 13:05:29;;;;;;;3.90;1.83;;;22.00;69.90;;;;;;4946531;29;20031;-59
2022/10/11 13:08:01;;;;;;;5.75;1.23;;;22.30;67.30;;;;;;4948056;28;20035;-59
2022/10/11 13:10:29;;;;;;;;;;;22.30;64.20;;;;;;4947708;28;20516;-59
2022/10/11 13:12:58;;;;;;;4.53;0.70;;;22.70;62.90;;;;;;4948857;29;19933;-59
2022/10/11 13:15:24;;;;;;;3.88;1.00;;;22.70;61.20;;;;;;4944883;28;20047;-60
2022/10/11 13:17:56;;;;;;;7.53;1.90;;;22.20;60.50;;;;;;4948349;28;20027;-60